Time;durP1;ratioP1;P1;durP2;ratioP2;P2;SDS_P1;SDS_P2;PMS_P1;PMS_P2;Temp;Humidity;BMP_temperature;BMP_pressure;BME280_temperature;BME280_humidity;BME280_pressure;Samples;Min_cycle;Max_cycle;Signal;HPM_P1;HPM_P2
2021/10/19 00:00:39;;;;;;;15.60;10.60;;;;;;;6.89;79.36;97142.75;6126567;23;20010;-95
2021/10/19 00:03:05;;;;;;;16.83;10.23;;;;;;;6.96;79.29;97156.09;6127030;23;20002;-94
2021/10/19 00:05:31;;;;;;;16.38;10.63;;;;;;;6.84;79.42;97149.38;6127730;23;20055;-94
2021/10/19 00:07:56;;;;;;;13.88;10.75;;;;;;;6.74;78.80;97155.72;6126673;23;20499;-94
2021/10/19 00:10:22;;;;;;;13.75;10.85;;;;;;;6.75;78.92;97159.94;6126696;23;20029;-93
2021/10/19 00:12:47;;;;;;;13.75;10.45;;;;;;;6.60;79.00;97161.38;6126535;23;20002;-94
2021/10/19 00:15:15;;;;;;;17.15;10.93;;;;;;;6.53;78.22;97170.34;6126543;23;20036;-94
2021/10/19 00:17:43;;;;;;;13.90;10.25;;;;;;;6.46;78.37;97170.47;6128449;23;19998;-94
2021/10/19 00:20:10;;;;;;;14.32;10.55;;;;;;;6.53;78.87;97198.09;6126662;23;20432;-96
2021/10/19 00:22:36;;;;;;;15.23;9.80;;;;;;;6.46;78.97;97182.03;6126483;23;20380;-94
2021/10/19 00:25:04;;;;;;;12.77;9.35;;;;;;;6.43;78.80;97184.78;6126663;23;20010;-95
2021/10/19 00:27:37;;;;;;;11.57;8.75;;;;;;;6.55;79.00;97198.47;6126466;23;20002;-95
2021/10/19 00:30:05;;;;;;;11.15;8.25;;;;;;;6.50;78.65;97181.97;6127702;23;20002;-93
2021/10/19 00:32:32;;;;;;;10.10;7.80;;;;;;;6.52;79.25;97193.13;6126601;23;20002;-94
2021/10/19 00:34:57;;;;;;;11.07;8.25;;;;;;;6.27;79.23;97169.22;6127017;23;20086;-95
2021/10/19 00:37:22;;;;;;;13.77;7.88;;;;;;;6.12;78.59;97171.38;6126836;23;20309;-94
2021/10/19 00:39:48;;;;;;;9.48;7.45;;;;;;;6.14;78.57;97187.16;6126796;23;20010;-95
2021/10/19 00:42:13;;;;;;;9.40;7.35;;;;;;;6.07;78.63;97179.16;6127782;23;20097;-94
2021/10/19 00:44:39;;;;;;;11.10;8.20;;;;;;;6.10;79.38;97181.06;6131269;23;20014;-95
2021/10/19 00:47:04;;;;;;;13.30;8.23;;;;;;;6.14;80.11;97189.88;6132067;23;19997;-94
2021/10/19 00:49:30;;;;;;;10.88;7.88;;;;;;;6.09;80.11;97190.31;6133443;23;20005;-95
2021/10/19 00:51:56;;;;;;;10.70;7.78;;;;;;;6.07;78.63;97195.34;6133486;23;20324;-94
2021/10/19 00:54:23;;;;;;;11.40;8.20;;;;;;;6.26;80.44;97214.31;6133403;23;20001;-95
2021/10/19 00:56:51;;;;;;;10.75;7.60;;;;;;;6.19;80.25;97192.84;6133669;23;20005;-95
2021/10/19 00:59:17;;;;;;;11.02;8.57;;;;;;;6.19;80.18;97189.41;6133701;23;20064;-95
2021/10/19 01:01:43;;;;;;;11.77;8.70;;;;;;;6.16;80.06;97193.66;6133461;23;20002;-96
2021/10/19 01:04:08;;;;;;;15.15;11.50;;;;;;;6.08;80.06;97192.25;6133351;23;20067;-96
2021/10/19 01:06:34;;;;;;;15.70;12.52;;;;;;;6.15;79.80;97210.25;6133456;23;19997;-95
2021/10/19 01:12:21;;;;;;;34.95;10.55;;;;;;;6.06;81.10;97194.56;6159109;23;20064;-96
2021/10/19 01:14:47;;;;;;;12.65;9.02;;;;;;;6.09;79.74;97203.81;6133329;23;20010;-95
2021/10/19 01:17:12;;;;;;;11.00;7.93;;;;;;;6.05;80.42;97201.16;6133447;23;20001;-94
2021/10/19 01:19:38;;;;;;;10.60;7.95;;;;;;;6.01;80.76;97182.31;6133539;23;20462;-95
2021/10/19 01:22:06;;;;;;;11.48;7.28;;;;;;;6.21;80.85;97208.63;6132976;23;20013;-95
2021/10/19 01:24:31;;;;;;;11.90;8.15;;;;;;;6.08;80.26;97205.75;6132788;23;20087;-95
2021/10/19 01:26:58;;;;;;;12.20;7.40;;;;;;;6.18;81.02;97221.00;6133055;23;19997;-95
2021/10/19 01:32:45;;;;;;;15.98;8.88;;;;;;;6.11;80.55;97182.56;6159617;23;20013;-96
2021/10/19 01:35:11;;;;;;;16.00;9.27;;;;;;;6.21;80.46;97204.00;6132850;23;20006;-95
2021/10/19 01:37:37;;;;;;;17.48;9.38;;;;;;;6.04;80.66;97183.44;6132947;23;20005;-95
2021/10/19 01:40:08;;;;;;;15.45;9.45;;;;;;;5.99;80.14;97181.22;6132987;23;20132;-95
2021/10/19 01:42:35;;;;;;;15.25;9.68;;;;;;;5.98;80.49;97185.06;6132703;23;20013;-94
2021/10/19 01:45:01;;;;;;;19.63;9.35;;;;;;;6.08;80.40;97203.03;6132795;23;20009;-95
2021/10/19 01:47:28;;;;;;;12.98;9.45;;;;;;;6.07;79.79;97190.72;6133814;23;20380;-94
2021/10/19 01:49:54;;;;;;;14.02;9.18;;;;;;;6.03;79.81;97201.56;6132556;23;20068;-94
2021/10/19 01:52:20;;;;;;;13.52;8.88;;;;;;;5.75;80.01;97161.47;6134704;23;20001;-94
2021/10/19 01:54:45;;;;;;;13.30;8.15;;;;;;;5.79;80.39;97162.19;6132638;23;20044;-94
2021/10/19 01:57:11;;;;;;;11.35;7.78;;;;;;;5.96;80.02;97174.69;6132621;23;20001;-95
2021/10/19 01:59:36;;;;;;;12.18;7.93;;;;;;;5.76;79.40;97173.78;6132025;23;20447;-95
2021/10/19 02:02:02;;;;;;;9.05;7.22;;;;;;;5.71;79.83;97169.63;6132796;23;20037;-94
2021/10/19 02:04:27;;;;;;;13.02;6.72;;;;;;;5.82;80.13;97192.97;6132683;23;20017;-95
2021/10/19 02:06:52;;;;;;;12.75;7.53;;;;;;;5.66;80.01;97172.75;6132609;23;20008;-95
2021/10/19 02:09:18;;;;;;;10.88;7.00;;;;;;;5.70;79.72;97188.88;6132615;23;19997;-95
2021/10/19 02:11:44;;;;;;;10.75;6.82;;;;;;;5.51;80.16;97158.69;6132687;23;20040;-96
2021/10/19 02:14:09;;;;;;;8.82;6.25;;;;;;;5.61;79.54;97169.75;6132363;23;20320;-94
2021/10/19 02:16:35;;;;;;;9.00;6.30;;;;;;;5.56;79.79;97181.75;6132614;23;20502;-95
2021/10/19 02:19:00;;;;;;;8.40;6.40;;;;;;;5.50;80.67;97169.91;6132738;23;20033;-95
2021/10/19 02:21:26;;;;;;;9.57;6.30;;;;;;;5.54;79.81;97178.72;6132414;23;20009;-94
2021/10/19 02:23:51;;;;;;;9.93;6.35;;;;;;;5.54;80.49;97167.94;6132557;23;20012;-95
2021/10/19 02:26:17;;;;;;;24.15;6.93;;;;;;;5.58;80.64;97179.41;6132445;23;20001;-94
2021/10/19 02:28:42;;;;;;;9.25;6.03;;;;;;;5.44;80.26;97174.97;6132812;23;20002;-95
2021/10/19 02:31:10;;;;;;;10.25;6.43;;;;;;;5.48;79.60;97178.34;6132480;23;20060;-94
2021/10/19 02:33:36;;;;;;;9.98;6.15;;;;;;;5.48;80.25;97180.28;6132432;23;20390;-95
2021/10/19 02:36:03;;;;;;;7.70;5.88;;;;;;;5.37;79.76;97161.56;6132080;23;20005;-96
2021/10/19 02:38:28;;;;;;;11.68;6.60;;;;;;;5.25;79.81;97149.41;6132317;23;20389;-94
2021/10/19 02:40:54;;;;;;;9.63;6.15;;;;;;;5.41;80.28;97175.75;6132364;23;20001;-94
2021/10/19 02:43:20;;;;;;;9.38;7.10;;;;;;;5.13;80.39;97135.72;6132031;23;20013;-95
2021/10/19 02:45:45;;;;;;;11.82;6.47;;;;;;;5.28;80.66;97150.53;6132559;23;20039;-94
2021/10/19 02:48:11;;;;;;;11.82;7.00;;;;;;;5.35;80.54;97160.47;6132256;23;20001;-94
2021/10/19 02:50:36;;;;;;;9.32;6.07;;;;;;;5.45;81.70;97159.56;6132030;23;20009;-93
2021/10/19 02:53:02;;;;;;;7.30;6.05;;;;;;;5.71;81.84;97195.81;6132029;23;20088;-95
2021/10/19 02:55:28;;;;;;;9.27;6.38;;;;;;;5.48;82.06;97167.59;6131903;23;20478;-94
2021/10/19 02:57:53;;;;;;;9.43;6.85;;;;;;;5.53;82.34;97171.75;6131797;23;20006;-95
2021/10/19 03:00:19;;;;;;;9.98;7.55;;;;;;;5.47;82.86;97146.44;6132136;23;20009;-94
2021/10/19 03:02:45;;;;;;;9.98;7.07;;;;;;;5.65;82.93;97168.53;6132227;23;20013;-95
2021/10/19 03:05:11;;;;;;;10.43;8.30;;;;;;;5.90;82.61;97205.19;6132264;23;20005;-94
2021/10/19 03:07:36;;;;;;;11.20;8.43;;;;;;;5.79;83.05;97183.75;6131842;23;20010;-94
2021/10/19 03:10:03;;;;;;;10.30;7.93;;;;;;;5.72;83.00;97170.38;6132031;23;20505;-95
2021/10/19 03:12:28;;;;;;;11.45;8.48;;;;;;;5.81;83.09;97167.19;6131823;23;20009;-94
2021/10/19 03:14:54;;;;;;;12.23;8.38;;;;;;;5.88;82.69;97178.63;6131832;23;20080;-95
2021/10/19 03:17:20;;;;;;;11.65;8.10;;;;;;;5.70;83.44;97148.44;6132145;23;20001;-95
2021/10/19 03:19:45;;;;;;;13.48;8.63;;;;;;;5.83;83.46;97162.16;6131753;23;20021;-95
2021/10/19 03:22:11;;;;;;;11.60;8.32;;;;;;;5.89;83.24;97177.44;6131897;23;20316;-94
2021/10/19 03:24:36;;;;;;;8.90;7.50;;;;;;;5.97;83.31;97183.56;6132127;23;20107;-94
2021/10/19 03:27:02;;;;;;;10.38;7.68;;;;;;;6.02;82.96;97183.84;6132019;23;20002;-95
2021/10/19 03:29:28;;;;;;;12.18;8.57;;;;;;;5.96;82.77;97173.91;6131709;23;20008;-96
2021/10/19 03:31:53;;;;;;;15.20;8.48;;;;;;;6.13;84.12;97193.72;6132445;23;20010;-95
2021/10/19 03:34:19;;;;;;;12.25;8.35;;;;;;;6.06;83.50;97174.94;6133141;23;20013;-96
2021/10/19 03:36:45;;;;;;;13.95;7.38;;;;;;;6.27;83.21;97198.91;6132059;23;20004;-95
2021/10/19 03:39:11;;;;;;;8.82;6.85;;;;;;;6.29;83.09;97193.88;6131938;23;20020;-96
2021/10/19 03:41:36;;;;;;;9.05;6.90;;;;;;;6.16;83.07;97166.69;6131764;23;20009;-96
2021/10/19 03:44:02;;;;;;;9.55;6.60;;;;;;;6.13;82.77;97162.13;6132817;23;20013;-95
2021/10/19 03:46:28;;;;;;;9.48;7.13;;;;;;;6.16;82.69;97153.19;6132003;23;20016;-94
2021/10/19 03:48:53;;;;;;;9.60;7.22;;;;;;;6.20;83.11;97159.31;6132991;23;20016;-96
2021/10/19 03:51:19;;;;;;;10.93;8.35;;;;;;;6.24;82.71;97161.97;6132388;23;20009;-96
2021/10/19 03:53:45;;;;;;;11.20;7.25;;;;;;;6.18;83.03;97158.19;6131873;23;20344;-96
2021/10/19 03:56:11;;;;;;;10.65;7.53;;;;;;;6.24;82.72;97161.97;6131885;23;19997;-96
2021/10/19 03:58:36;;;;;;;11.27;8.23;;;;;;;6.39;82.21;97178.66;6132241;23;20048;-94
2021/10/19 04:01:02;;;;;;;10.73;7.70;;;;;;;6.24;82.06;97151.94;6131889;23;20402;-95
2021/10/19 04:03:27;;;;;;;12.23;7.97;;;;;;;6.14;82.56;97131.28;6132083;23;20037;-93
2021/10/19 04:05:53;;;;;;;10.85;7.80;;;;;;;6.05;81.50;97128.31;6131586;23;20063;-94
2021/10/19 04:08:19;;;;;;;11.35;8.05;;;;;;;6.13;82.60;97132.47;6131763;23;20148;-95
2021/10/19 04:10:44;;;;;;;10.95;8.20;;;;;;;6.18;81.79;97142.00;6132089;23;20152;-95
2021/10/19 04:13:10;;;;;;;10.40;7.25;;;;;;;6.30;81.65;97155.69;6131681;23;20422;-94
2021/10/19 04:15:36;;;;;;;8.90;6.38;;;;;;;6.27;82.37;97145.69;6131578;23;20009;-96
2021/10/19 04:18:02;;;;;;;7.53;5.95;;;;;;;6.29;81.24;97154.16;6131601;23;20044;-94
2021/10/19 04:20:27;;;;;;;7.63;6.22;;;;;;;6.43;81.23;97177.44;6131450;23;20036;-96
2021/10/19 04:22:53;;;;;;;7.80;5.88;;;;;;;6.23;80.75;97128.84;6131238;23;20010;-95
2021/10/19 04:25:19;;;;;;;7.78;6.20;;;;;;;6.33;80.16;97151.41;6131483;23;20005;-95
2021/10/19 04:27:44;;;;;;;7.70;6.00;;;;;;;6.22;79.55;97148.09;6131387;23;20006;-94
2021/10/19 04:30:10;;;;;;;7.75;6.10;;;;;;;6.17;80.05;97141.22;6131203;23;20009;-94
2021/10/19 04:32:36;;;;;;;6.80;5.85;;;;;;;6.40;80.19;97182.91;6131348;23;20468;-94
2021/10/19 04:35:02;;;;;;;8.35;5.70;;;;;;;6.21;80.66;97158.13;6131278;23;20398;-95
2021/10/19 04:37:27;;;;;;;8.65;5.95;;;;;;;6.20;80.43;97161.25;6131217;23;20001;-94
2021/10/19 04:39:53;;;;;;;7.97;6.32;;;;;;;6.21;80.98;97166.22;6131445;23;20009;-95
2021/10/19 04:42:19;;;;;;;12.98;9.30;;;;;;;6.13;80.37;97151.34;6130971;23;20013;-94
2021/10/19 04:44:46;;;;;;;12.55;9.30;;;;;;;6.07;79.05;97163.72;6131267;23;20431;-94
2021/10/19 04:47:12;;;;;;;7.70;6.65;;;;;;;6.01;79.03;97158.03;6131566;23;20059;-94
2021/10/19 04:49:38;;;;;;;8.35;5.72;;;;;;;6.12;79.32;97173.31;6131489;23;20088;-96
2021/10/19 04:52:04;;;;;;;8.32;5.15;;;;;;;6.24;78.94;97191.63;6132377;23;20012;-95
2021/10/19 04:54:30;;;;;;;5.28;4.38;;;;;;;5.96;78.55;97147.72;6132025;23;20001;-94
2021/10/19 04:56:56;;;;;;;4.68;3.90;;;;;;;6.06;78.39;97170.31;6132120;23;20088;-94
2021/10/19 04:59:21;;;;;;;5.65;3.20;;;;;;;6.18;78.01;97187.84;6135216;23;20394;-94
2021/10/19 05:01:46;;;;;;;5.82;3.65;;;;;;;5.96;77.72;97165.81;6132348;23;20006;-94
2021/10/19 05:04:15;;;;;;;6.97;4.13;;;;;;;5.76;77.66;97144.91;6133771;23;20435;-95
2021/10/19 05:06:42;;;;;;;7.18;3.83;;;;;;;5.98;78.44;97185.84;6134520;23;20012;-93
2021/10/19 05:09:08;;;;;;;6.22;3.90;;;;;;;6.10;77.82;97194.53;6132763;23;20016;-94
2021/10/19 05:11:33;;;;;;;6.75;3.80;;;;;;;5.81;78.12;97153.72;6133171;23;20005;-95
2021/10/19 05:13:59;;;;;;;8.60;4.60;;;;;;;5.70;78.42;97151.13;6134054;23;20009;-95
2021/10/19 05:16:24;;;;;;;10.35;5.72;;;;;;;5.97;78.62;97195.09;6132688;23;20001;-95
2021/10/19 05:18:50;;;;;;;10.05;6.10;;;;;;;5.79;79.51;97170.28;6132932;23;20044;-96
2021/10/19 05:21:15;;;;;;;10.40;7.13;;;;;;;5.88;78.74;97180.56;6133051;23;20005;-96
2021/10/19 05:23:41;;;;;;;13.27;9.80;;;;;;;5.80;77.87;97177.19;6134010;23;20011;-94
2021/10/19 05:26:09;;;;;;;14.68;10.23;;;;;;;5.91;77.72;97185.94;6132896;23;20065;-95
2021/10/19 05:28:35;;;;;;;13.20;9.75;;;;;;;6.09;77.90;97209.19;6132205;23;20346;-95
2021/10/19 05:31:00;;;;;;;14.38;6.47;;;;;;;5.85;78.70;97175.97;6132156;23;20009;-94
2021/10/19 05:33:26;;;;;;;9.27;4.50;;;;;;;5.84;78.76;97158.28;6132222;23;20019;-95
2021/10/19 05:35:52;;;;;;;6.10;3.92;;;;;;;6.02;78.24;97175.78;6134411;23;20089;-95
2021/10/19 05:38:17;;;;;;;8.05;3.65;;;;;;;6.23;78.36;97207.06;6134304;23;20490;-94
2021/10/19 05:40:43;;;;;;;5.45;3.65;;;;;;;6.13;77.98;97194.50;6133893;23;20100;-94
2021/10/19 05:43:09;;;;;;;8.48;4.70;;;;;;;6.22;77.96;97208.22;6127853;23;20022;-95
2021/10/19 05:45:34;;;;;;;6.88;4.30;;;;;;;6.09;78.51;97190.31;6128714;23;20010;-94
2021/10/19 05:48:00;;;;;;;4.88;3.97;;;;;;;6.06;78.21;97191.13;6128707;23;20482;-96
2021/10/19 05:50:26;;;;;;;7.05;4.50;;;;;;;5.97;77.72;97189.72;6129840;23;20028;-96
2021/10/19 05:52:51;;;;;;;6.70;4.40;;;;;;;5.74;78.44;97163.41;6130112;23;20001;-96
2021/10/19 05:55:17;;;;;;;8.95;4.72;;;;;;;5.85;78.57;97179.44;6129452;23;20068;-96
2021/10/19 05:57:42;;;;;;;6.65;4.70;;;;;;;5.79;78.25;97179.13;6129303;23;20002;-95
2021/10/19 06:00:09;;;;;;;8.38;5.50;;;;;;;5.65;78.04;97149.69;6130541;23;20017;-95
2021/10/19 06:02:34;;;;;;;8.57;5.60;;;;;;;6.22;78.49;97231.72;6130100;23;20005;-95
2021/10/19 06:05:00;;;;;;;6.40;5.53;;;;;;;6.11;78.39;97206.84;6105402;23;20105;-95
2021/10/19 06:07:26;;;;;;;9.18;5.88;;;;;;;5.90;79.44;97192.47;6129503;23;20006;-96
2021/10/19 06:09:51;;;;;;;10.10;5.55;;;;;;;6.10;79.81;97218.81;6129736;23;20476;-96
2021/10/19 06:12:17;;;;;;;10.70;6.25;;;;;;;6.13;80.31;97215.31;6129979;23;20052;-96
2021/10/19 06:14:42;;;;;;;8.55;6.28;;;;;;;6.29;79.88;97210.06;6132170;23;20009;-96
2021/10/19 06:17:10;;;;;;;8.27;5.90;;;;;;;6.17;80.18;97189.03;6129725;23;20006;-96
2021/10/19 06:19:35;;;;;;;10.82;6.20;;;;;;;5.79;79.86;97124.44;6130565;23;20041;-95
2021/10/19 06:22:01;;;;;;;8.52;6.25;;;;;;;6.25;80.13;97195.84;6130265;23;20002;-95
2021/10/19 06:24:27;;;;;;;9.10;6.20;;;;;;;5.99;80.06;97157.69;6128492;23;20006;-95
2021/10/19 06:26:52;;;;;;;11.48;6.63;;;;;;;6.62;79.21;97251.56;6128845;23;20002;-95
2021/10/19 06:29:18;;;;;;;10.05;7.18;;;;;;;6.35;79.49;97215.75;6128602;23;20009;-95
2021/10/19 06:31:44;;;;;;;15.55;8.07;;;;;;;6.52;78.98;97247.09;6128326;23;20006;-95
2021/10/19 06:34:10;;;;;;;12.45;7.90;;;;;;;6.63;79.00;97263.13;6129048;23;20081;-95
2021/10/19 06:36:36;;;;;;;13.75;8.55;;;;;;;6.74;79.50;97274.53;6129903;23;20017;-96
2021/10/19 06:39:02;;;;;;;13.80;9.05;;;;;;;6.59;78.72;97249.69;6130954;23;20089;-96
2021/10/19 06:41:29;;;;;;;13.30;8.63;;;;;;;6.61;78.66;97235.81;6129316;23;20489;-96
2021/10/19 06:43:55;;;;;;;16.45;9.50;;;;;;;6.48;79.44;97228.25;6128738;23;20009;-96
2021/10/19 06:46:20;;;;;;;15.52;12.40;;;;;;;6.79;78.61;97247.81;6127889;23;20505;-96
2021/10/19 06:48:46;;;;;;;15.57;12.20;;;;;;;6.81;79.36;97237.38;6128342;23;20102;-96
2021/10/19 06:51:11;;;;;;;15.85;12.52;;;;;;;6.66;79.45;97209.09;6127819;23;20449;-96
2021/10/19 06:53:37;;;;;;;18.92;13.05;;;;;;;6.90;79.97;97242.25;6127670;23;20441;-96
2021/10/19 06:56:03;;;;;;;14.45;10.07;;;;;;;6.95;79.40;97247.19;6127531;23;20006;-95
2021/10/19 06:58:28;;;;;;;15.73;9.73;;;;;;;6.91;79.11;97230.25;6127746;23;20458;-95
2021/10/19 07:00:55;;;;;;;13.10;9.50;;;;;;;7.14;79.54;97255.72;6127854;23;20321;-96
2021/10/19 07:03:23;;;;;;;15.15;9.40;;;;;;;6.94;79.66;97218.66;6129696;23;20029;-96
2021/10/19 07:05:49;;;;;;;12.63;8.52;;;;;;;7.08;78.86;97223.81;6128967;23;20005;-94
2021/10/19 07:08:14;;;;;;;12.75;8.05;;;;;;;7.21;79.63;97236.69;6105774;23;20014;-96
2021/10/19 07:10:40;;;;;;;10.57;7.50;;;;;;;7.29;78.74;97249.66;6128810;23;20009;-94
2021/10/19 07:13:06;;;;;;;12.10;7.55;;;;;;;7.22;78.03;97220.06;6128559;23;20010;-94
2021/10/19 07:15:34;;;;;;;12.20;8.20;;;;;;;7.40;78.98;97254.09;6129421;23;20009;-95
2021/10/19 07:18:07;;;;;;;11.48;8.00;;;;;;;7.13;78.80;97216.38;6127011;23;20002;-94
2021/10/19 07:20:33;;;;;;;13.07;8.40;;;;;;;7.17;79.33;97217.84;6129665;23;20006;-95
2021/10/19 07:23:01;;;;;;;13.32;8.40;;;;;;;7.13;79.80;97216.38;6127739;23;20002;-95
2021/10/19 07:25:28;;;;;;;13.63;9.07;;;;;;;7.18;79.96;97210.50;6128808;23;20012;-95
2021/10/19 07:27:56;;;;;;;15.60;9.63;;;;;;;7.33;80.32;97230.69;6128068;23;20006;-95
2021/10/19 07:30:22;;;;;;;17.33;9.57;;;;;;;7.62;80.45;97241.72;6126940;23;20006;-95
2021/10/19 07:32:48;;;;;;;15.25;9.65;;;;;;;7.44;79.21;97206.91;6127044;23;20005;-94
2021/10/19 07:35:16;;;;;;;12.77;8.40;;;;;;;7.48;78.91;97204.16;6127412;23;20010;-95
2021/10/19 07:37:44;;;;;;;15.50;9.70;;;;;;;7.80;78.95;97235.94;6127619;23;20335;-94
2021/10/19 07:40:11;;;;;;;12.38;9.02;;;;;;;7.86;78.58;97231.56;6126942;23;20016;-96
2021/10/19 07:42:37;;;;;;;12.52;9.32;;;;;;;7.76;78.04;97211.66;6126551;23;20432;-95
2021/10/19 07:45:05;;;;;;;13.25;9.60;;;;;;;7.82;78.08;97220.81;6126375;23;20419;-95
2021/10/19 07:47:30;;;;;;;12.30;9.15;;;;;;;7.80;78.01;97209.66;6126698;23;20312;-96
2021/10/19 07:49:56;;;;;;;15.75;9.27;;;;;;;7.76;77.66;97202.81;6126202;23;20016;-94
2021/10/19 07:52:21;;;;;;;17.30;10.85;;;;;;;7.82;78.08;97212.69;6126346;23;20006;-95
2021/10/19 07:54:47;;;;;;;17.13;10.02;;;;;;;7.86;77.64;97207.22;6126569;23;20005;-94
2021/10/19 07:57:12;;;;;;;17.17;12.38;;;;;;;7.94;78.41;97202.44;6126222;23;20002;-94
2021/10/19 07:59:37;;;;;;;19.95;11.73;;;;;;;8.03;78.83;97199.91;6126521;23;20009;-94
2021/10/19 08:02:03;;;;;;;18.55;12.98;;;;;;;8.10;78.44;97211.34;6126574;23;20009;-96
2021/10/19 08:04:28;;;;;;;21.48;12.15;;;;;;;8.15;78.81;97212.78;6126646;23;20343;-94
2021/10/19 08:06:54;;;;;;;19.17;12.05;;;;;;;8.11;78.88;97210.16;6126411;23;20005;-95
2021/10/19 08:12:34;;;;;;;16.08;10.70;;;;;;;8.27;78.05;97211.38;6128379;23;20016;-95
2021/10/19 08:15:01;;;;;;;19.00;12.05;;;;;;;8.31;77.34;97230.97;6126393;23;20001;-95
2021/10/19 08:17:27;;;;;;;18.55;11.98;;;;;;;8.36;78.33;97235.91;6126323;23;20079;-94
2021/10/19 08:19:58;;;;;;;16.85;11.00;;;;;;;8.26;77.77;97209.84;6126388;23;20005;-95
2021/10/19 08:22:24;;;;;;;26.33;14.05;;;;;;;8.36;78.35;97233.22;6126491;23;20013;-95
2021/10/19 08:24:50;;;;;;;26.13;15.68;;;;;;;8.49;77.42;97249.56;6126232;23;20010;-95
2021/10/19 08:27:15;;;;;;;27.90;15.48;;;;;;;8.26;78.38;97226.84;6126423;23;20008;-94
2021/10/19 08:29:41;;;;;;;26.50;15.70;;;;;;;8.14;79.77;97222.84;6127826;23;20032;-95
2021/10/19 08:32:06;;;;;;;22.85;15.45;;;;;;;8.29;79.54;97220.56;6125995;23;20002;-95
2021/10/19 08:34:32;;;;;;;26.50;15.68;;;;;;;8.38;79.48;97218.09;6126110;23;20037;-95
2021/10/19 08:36:57;;;;;;;27.17;16.40;;;;;;;8.55;78.88;97228.91;6126132;23;20041;-94
2021/10/19 08:39:23;;;;;;;30.17;17.02;;;;;;;8.54;78.37;97244.41;6126475;23;20017;-96
2021/10/19 08:41:48;;;;;;;25.88;16.65;;;;;;;8.49;77.98;97225.97;6126311;23;20002;-95
2021/10/19 08:44:13;;;;;;;25.90;17.13;;;;;;;8.46;78.11;97234.91;6126640;23;20014;-96
2021/10/19 08:46:40;;;;;;;25.77;17.58;;;;;;;8.40;78.32;97231.19;6126247;23;20044;-94
2021/10/19 08:49:05;;;;;;;27.02;17.33;;;;;;;8.42;78.18;97228.84;6126127;23;20046;-95
2021/10/19 08:51:31;;;;;;;25.13;17.50;;;;;;;8.53;77.54;97223.19;6123648;23;20010;-95
2021/10/19 08:53:56;;;;;;;23.73;16.98;;;;;;;8.55;77.78;97218.09;6126126;23;20002;-93
2021/10/19 08:56:22;;;;;;;26.23;17.73;;;;;;;8.62;77.73;97215.19;6126386;23;20002;-94
2021/10/19 08:58:57;;;;;;;24.65;17.00;;;;;;;8.68;78.44;97221.63;6126058;23;20013;-94
2021/10/19 09:01:33;;;;;;;24.30;17.10;;;;;;;8.84;78.36;97226.28;6125543;23;20094;-95
2021/10/19 09:03:58;;;;;;;25.17;15.88;;;;;;;8.78;78.11;97212.47;6125966;23;20009;-94
2021/10/19 09:06:33;;;;;;;22.60;14.88;;;;;;;8.89;77.34;97231.19;6126207;23;20435;-94
2021/10/19 09:09:07;;;;;;;19.05;14.45;;;;;;;8.73;77.99;97194.03;6126379;23;20020;-93
2021/10/19 09:11:44;;;;;;;16.98;13.90;;;;;;;8.97;77.17;97221.69;6127900;23;20038;-93
2021/10/19 09:14:11;;;;;;;18.48;14.43;;;;;;;9.04;75.68;97210.66;6127597;23;20012;-93
2021/10/19 09:16:38;;;;;;;19.42;14.68;;;;;;;9.26;76.14;97223.66;6128582;23;20025;-95
2021/10/19 09:19:05;;;;;;;20.10;13.82;;;;;;;9.27;76.10;97219.75;6128279;23;20009;-94
2021/10/19 09:21:31;;;;;;;19.77;13.90;;;;;;;9.26;76.57;97224.41;6127659;23;20010;-93
2021/10/19 09:24:25;;;;;;;23.25;14.60;;;;;;;9.17;76.96;97222.34;6127815;23;20432;-93
2021/10/19 09:26:59;;;;;;;20.17;14.93;;;;;;;9.12;76.79;97220.16;6127415;23;20454;-94
2021/10/19 09:29:27;;;;;;;18.88;14.10;;;;;;;9.20;76.34;97218.00;6127834;23;20016;-94
2021/10/19 09:31:56;;;;;;;20.70;14.75;;;;;;;9.19;76.37;97230.03;6127696;23;20037;-94
2021/10/19 09:34:25;;;;;;;20.55;15.27;;;;;;;9.16;76.18;97206.47;6127975;23;20009;-94
2021/10/19 09:36:51;;;;;;;21.45;14.18;;;;;;;9.29;75.70;97209.25;6127842;23;20455;-92
2021/10/19 09:42:38;;;;;;;18.55;13.70;;;;;;;9.55;75.18;97204.69;6135126;23;20105;-93
2021/10/19 09:45:04;;;;;;;18.60;14.63;;;;;;;9.41;75.22;97203.13;6133391;23;20029;-95
2021/10/19 09:47:37;;;;;;;20.75;14.25;;;;;;;9.53;75.51;97194.25;6132491;23;19997;-93
2021/10/19 09:50:08;;;;;;;18.33;14.05;;;;;;;9.60;75.23;97206.88;6132397;23;20009;-93
2021/10/19 09:52:37;;;;;;;22.20;13.40;;;;;;;9.48;76.83;97181.25;6158287;23;20006;-95
2021/10/19 09:55:05;;;;;;;20.45;13.60;;;;;;;9.44;76.77;97180.56;6132193;23;20412;-93
2021/10/19 09:58:23;;;;;;;18.83;13.70;;;;;;;9.63;76.34;97200.56;6160960;23;20002;-93
2021/10/19 10:04:11;;;;;;;18.20;11.98;;;;;;;9.45;76.76;97173.97;6158308;23;20024;-92
2021/10/19 10:06:36;;;;;;;15.60;12.00;;;;;;;9.44;76.47;97167.78;6132221;23;20005;-93
2021/10/19 10:09:02;;;;;;;17.85;13.27;;;;;;;9.61;76.67;97168.47;6132210;23;20052;-94
2021/10/19 10:11:28;;;;;;;15.85;12.65;;;;;;;9.64;77.19;97164.13;6132480;23;20375;-93
2021/10/19 10:13:55;;;;;;;18.10;12.63;;;;;;;9.84;75.84;97185.63;6132241;23;20005;-95
2021/10/19 10:16:21;;;;;;;14.80;11.38;;;;;;;9.86;75.14;97167.00;6129551;23;20032;-95
2021/10/19 10:18:46;;;;;;;14.07;12.27;;;;;;;10.02;75.13;97169.59;6130256;23;20165;-94
2021/10/19 10:21:20;;;;;;;33.78;21.75;;;;;;;10.15;75.02;97164.16;6131398;23;20447;-94
2021/10/19 10:23:58;;;;;;;23.13;14.65;;;;;;;10.05;75.42;97152.44;6131678;23;20009;-94
2021/10/19 10:26:27;;;;;;;21.10;14.65;;;;;;;10.31;75.07;97155.16;6132269;23;20005;-95
2021/10/19 10:28:52;;;;;;;20.38;13.85;;;;;;;10.39;74.37;97138.22;6132640;23;20012;-95
2021/10/19 10:31:21;;;;;;;19.95;13.88;;;;;;;10.42;74.74;97155.56;6133917;23;20316;-96
2021/10/19 10:33:59;;;;;;;17.40;13.35;;;;;;;10.46;73.88;97159.69;6132440;23;20084;-96
2021/10/19 10:36:36;;;;;;;17.45;13.20;;;;;;;10.71;73.77;97158.91;6137649;23;20777;-94
2021/10/19 10:39:03;;;;;;;21.30;13.60;;;;;;;10.77;73.48;97145.50;6137355;23;20371;-93
2021/10/19 10:41:39;;;;;;;19.95;12.95;;;;;;;10.86;73.18;97142.84;6157743;23;20001;-95
2021/10/19 10:44:06;;;;;;;18.80;12.15;;;;;;;10.99;73.04;97140.09;6131939;23;20068;-93
2021/10/19 10:46:32;;;;;;;16.77;12.38;;;;;;;10.80;72.86;97113.97;6132783;23;20005;-94
2021/10/19 10:48:58;;;;;;;14.20;11.38;;;;;;;10.87;72.54;97106.34;6137351;23;20005;-93
2021/10/19 10:51:36;;;;;;;15.40;11.52;;;;;;;11.12;72.75;97140.78;6131905;23;20324;-94
2021/10/19 10:54:02;;;;;;;17.90;12.13;;;;;;;10.93;71.87;97117.41;6164705;23;20011;-94
2021/10/19 10:56:28;;;;;;;21.83;12.55;;;;;;;10.80;72.45;97113.97;6131695;23;20037;-94
2021/10/19 10:59:05;;;;;;;20.08;12.13;;;;;;;11.00;72.56;97104.31;6135864;23;20013;-94
2021/10/19 11:01:31;;;;;;;18.45;12.23;;;;;;;11.29;72.22;97103.28;6124888;23;20009;-93
2021/10/19 11:04:05;;;;;;;15.27;11.85;;;;;;;11.67;71.50;97113.94;6129962;23;20013;-94
2021/10/19 11:06:30;;;;;;;16.52;11.50;;;;;;;11.64;69.39;97074.00;6157040;23;19998;-92
2021/10/19 11:08:59;;;;;;;15.52;10.93;;;;;;;12.04;69.43;97104.00;6131116;23;20013;-92
2021/10/19 11:11:24;;;;;;;14.38;10.70;;;;;;;12.12;68.59;97082.66;6131324;23;20005;-94
2021/10/19 11:13:58;;;;;;;18.42;11.45;;;;;;;12.34;68.20;97096.19;6131301;23;20010;-93
2021/10/19 11:16:33;;;;;;;17.00;11.27;;;;;;;12.52;67.40;97088.03;6130859;23;20013;-93
2021/10/19 11:19:00;;;;;;;12.75;10.30;;;;;;;12.57;67.22;97064.91;6131552;23;20011;-93
2021/10/19 11:21:26;;;;;;;14.10;10.48;;;;;;;12.60;66.25;97061.25;6131283;23;20009;-93
2021/10/19 11:23:52;;;;;;;14.10;10.80;;;;;;;12.67;66.96;97049.28;6130824;23;20024;-93
2021/10/19 11:26:18;;;;;;;16.77;11.18;;;;;;;12.75;66.14;97051.25;6131181;23;19998;-94
2021/10/19 11:28:44;;;;;;;15.18;10.68;;;;;;;13.00;65.02;97055.63;6131030;23;20005;-93
2021/10/19 11:31:12;;;;;;;16.38;10.98;;;;;;;13.04;65.37;97044.56;6130920;23;20005;-93
2021/10/19 11:33:39;;;;;;;12.80;10.65;;;;;;;12.98;66.10;97046.38;6130249;23;20005;-93
2021/10/19 11:36:05;;;;;;;14.15;10.52;;;;;;;13.13;65.64;97046.50;6130625;23;20008;-91
2021/10/19 11:38:32;;;;;;;13.57;10.60;;;;;;;13.36;65.32;97063.00;6130249;23;20625;-93
2021/10/19 11:41:06;;;;;;;14.35;10.30;;;;;;;13.46;65.27;97063.72;6130698;23;20044;-92
2021/10/19 11:43:31;;;;;;;14.43;10.32;;;;;;;13.32;64.35;97061.66;6156755;23;20384;-91
2021/10/19 11:45:57;;;;;;;13.65;10.40;;;;;;;13.22;64.68;97049.25;6130599;23;20068;-92